sensor_id;sensor_type;location;lat;lon;timestamp;P1;durP1;ratioP1;P2;durP2;ratioP2
41986;SDS011;28361;50.740;7.084;2022-08-19T00:00:18;9.65;;;5.68;;
41986;SDS011;28361;50.740;7.084;2022-08-19T00:02:44;11.45;;;5.25;;
41986;SDS011;28361;50.740;7.084;2022-08-19T00:05:12;6.88;;;5.38;;
41986;SDS011;28361;50.740;7.084;2022-08-19T00:07:39;11.63;;;6.03;;
41986;SDS011;28361;50.740;7.084;2022-08-19T00:10:07;8.23;;;5.88;;
41986;SDS011;28361;50.740;7.084;2022-08-19T00:12:33;7.22;;;5.82;;
41986;SDS011;28361;50.740;7.084;2022-08-19T00:15:00;8.45;;;6.15;;
41986;SDS011;28361;50.740;7.084;2022-08-19T00:17:26;6.80;;;5.95;;
41986;SDS011;28361;50.740;7.084;2022-08-19T00:19:52;9.38;;;5.75;;
41986;SDS011;28361;50.740;7.084;2022-08-19T00:22:18;10.13;;;6.15;;
41986;SDS011;28361;50.740;7.084;2022-08-19T00:24:44;8.60;;;6.47;;
41986;SDS011;28361;50.740;7.084;2022-08-19T00:27:12;7.40;;;6.13;;
41986;SDS011;28361;50.740;7.084;2022-08-19T00:29:38;7.68;;;6.10;;
41986;SDS011;28361;50.740;7.084;2022-08-19T00:32:04;11.02;;;6.28;;
41986;SDS011;28361;50.740;7.084;2022-08-19T00:34:30;10.55;;;6.35;;
41986;SDS011;28361;50.740;7.084;2022-08-19T00:36:57;7.78;;;6.53;;
41986;SDS011;28361;50.740;7.084;2022-08-19T00:39:23;11.13;;;6.90;;
41986;SDS011;28361;50.740;7.084;2022-08-19T00:41:50;10.10;;;6.60;;
41986;SDS011;28361;50.740;7.084;2022-08-19T00:44:18;10.15;;;6.80;;
41986;SDS011;28361;50.740;7.084;2022-08-19T00:46:45;9.73;;;7.53;;
41986;SDS011;28361;50.740;7.084;2022-08-19T00:49:29;10.25;;;6.68;;
41986;SDS011;28361;50.740;7.084;2022-08-19T00:52:00;9.75;;;6.75;;
41986;SDS011;28361;50.740;7.084;2022-08-19T00:54:27;9.50;;;7.15;;
41986;SDS011;28361;50.740;7.084;2022-08-19T00:56:56;9.10;;;7.45;;
41986;SDS011;28361;50.740;7.084;2022-08-19T00:59:22;11.13;;;7.47;;
41986;SDS011;28361;50.740;7.084;2022-08-19T01:01:49;7.80;;;6.60;;
41986;SDS011;28361;50.740;7.084;2022-08-19T01:04:15;8.38;;;6.95;;
41986;SDS011;28361;50.740;7.084;2022-08-19T01:06:41;10.40;;;7.30;;
41986;SDS011;28361;50.740;7.084;2022-08-19T01:09:07;9.10;;;7.13;;
41986;SDS011;28361;50.740;7.084;2022-08-19T01:11:35;10.43;;;8.27;;
41986;SDS011;28361;50.740;7.084;2022-08-19T01:14:01;10.75;;;7.57;;
41986;SDS011;28361;50.740;7.084;2022-08-19T01:16:27;10.07;;;7.47;;
41986;SDS011;28361;50.740;7.084;2022-08-19T01:18:54;7.40;;;6.60;;
41986;SDS011;28361;50.740;7.084;2022-08-19T01:23:53;9.27;;;7.72;;
41986;SDS011;28361;50.740;7.084;2022-08-19T01:26:21;10.95;;;7.90;;
41986;SDS011;28361;50.740;7.084;2022-08-19T01:28:48;10.70;;;7.32;;
41986;SDS011;28361;50.740;7.084;2022-08-19T01:31:17;12.00;;;7.50;;
41986;SDS011;28361;50.740;7.084;2022-08-19T01:33:44;12.07;;;7.80;;
41986;SDS011;28361;50.740;7.084;2022-08-19T01:36:13;9.90;;;7.53;;
41986;SDS011;28361;50.740;7.084;2022-08-19T01:38:41;10.70;;;7.85;;
41986;SDS011;28361;50.740;7.084;2022-08-19T01:41:08;11.70;;;8.20;;
41986;SDS011;28361;50.740;7.084;2022-08-19T01:43:34;8.82;;;7.72;;
41986;SDS011;28361;50.740;7.084;2022-08-19T01:46:01;8.88;;;7.32;;
41986;SDS011;28361;50.740;7.084;2022-08-19T01:48:32;14.63;;;7.68;;
41986;SDS011;28361;50.740;7.084;2022-08-19T01:50:58;10.82;;;7.47;;
41986;SDS011;28361;50.740;7.084;2022-08-19T01:53:24;10.10;;;7.85;;
41986;SDS011;28361;50.740;7.084;2022-08-19T01:55:50;9.27;;;7.72;;
41986;SDS011;28361;50.740;7.084;2022-08-19T01:58:20;11.85;;;8.60;;
41986;SDS011;28361;50.740;7.084;2022-08-19T02:00:46;11.13;;;8.70;;
41986;SDS011;28361;50.740;7.084;2022-08-19T02:03:13;10.00;;;7.90;;
41986;SDS011;28361;50.740;7.084;2022-08-19T02:05:39;9.10;;;7.93;;
41986;SDS011;28361;50.740;7.084;2022-08-19T02:08:06;12.43;;;8.18;;
41986;SDS011;28361;50.740;7.084;2022-08-19T02:10:32;10.02;;;7.88;;
41986;SDS011;28361;50.740;7.084;2022-08-19T02:12:58;11.15;;;7.85;;
41986;SDS011;28361;50.740;7.084;2022-08-19T02:15:25;8.70;;;6.97;;
41986;SDS011;28361;50.740;7.084;2022-08-19T02:17:51;12.40;;;8.07;;
41986;SDS011;28361;50.740;7.084;2022-08-19T02:20:17;11.27;;;8.27;;
41986;SDS011;28361;50.740;7.084;2022-08-19T02:22:43;12.80;;;7.80;;
41986;SDS011;28361;50.740;7.084;2022-08-19T02:25:11;8.60;;;7.65;;
41986;SDS011;28361;50.740;7.084;2022-08-19T02:27:38;9.88;;;8.10;;
41986;SDS011;28361;50.740;7.084;2022-08-19T02:30:05;9.40;;;7.72;;
41986;SDS011;28361;50.740;7.084;2022-08-19T02:32:31;9.27;;;7.70;;
41986;SDS011;28361;50.740;7.084;2022-08-19T02:34:58;11.25;;;7.97;;
41986;SDS011;28361;50.740;7.084;2022-08-19T02:37:24;11.00;;;7.93;;
41986;SDS011;28361;50.740;7.084;2022-08-19T02:40:09;10.63;;;8.18;;
41986;SDS011;28361;50.740;7.084;2022-08-19T02:42:35;13.77;;;8.38;;
41986;SDS011;28361;50.740;7.084;2022-08-19T02:45:01;10.43;;;8.05;;
41986;SDS011;28361;50.740;7.084;2022-08-19T02:47:28;10.90;;;8.63;;
41986;SDS011;28361;50.740;7.084;2022-08-19T02:49:54;11.05;;;8.63;;
41986;SDS011;28361;50.740;7.084;2022-08-19T02:52:20;14.38;;;10.15;;
41986;SDS011;28361;50.740;7.084;2022-08-19T02:54:48;14.00;;;9.65;;
41986;SDS011;28361;50.740;7.084;2022-08-19T02:57:14;13.35;;;9.75;;
41986;SDS011;28361;50.740;7.084;2022-08-19T02:59:40;12.27;;;9.52;;
41986;SDS011;28361;50.740;7.084;2022-08-19T03:02:06;11.52;;;9.40;;
41986;SDS011;28361;50.740;7.084;2022-08-19T03:04:32;14.48;;;10.18;;
41986;SDS011;28361;50.740;7.084;2022-08-19T03:06:59;16.60;;;11.45;;
41986;SDS011;28361;50.740;7.084;2022-08-19T03:09:25;11.93;;;9.93;;
41986;SDS011;28361;50.740;7.084;2022-08-19T03:11:51;12.65;;;10.57;;
41986;SDS011;28361;50.740;7.084;2022-08-19T03:14:17;13.82;;;11.10;;
41986;SDS011;28361;50.740;7.084;2022-08-19T03:16:44;13.82;;;11.13;;
41986;SDS011;28361;50.740;7.084;2022-08-19T03:19:11;11.77;;;10.02;;
41986;SDS011;28361;50.740;7.084;2022-08-19T03:21:37;12.77;;;10.00;;
41986;SDS011;28361;50.740;7.084;2022-08-19T03:24:05;13.43;;;10.32;;
41986;SDS011;28361;50.740;7.084;2022-08-19T03:26:31;13.50;;;10.23;;
41986;SDS011;28361;50.740;7.084;2022-08-19T03:28:57;12.00;;;9.95;;
41986;SDS011;28361;50.740;7.084;2022-08-19T03:31:27;13.90;;;10.65;;
41986;SDS011;28361;50.740;7.084;2022-08-19T03:33:53;12.18;;;9.60;;
41986;SDS011;28361;50.740;7.084;2022-08-19T03:36:20;11.85;;;9.55;;
41986;SDS011;28361;50.740;7.084;2022-08-19T03:38:57;12.25;;;10.90;;
41986;SDS011;28361;50.740;7.084;2022-08-19T03:41:25;13.25;;;10.38;;
41986;SDS011;28361;50.740;7.084;2022-08-19T03:43:51;14.32;;;10.82;;
41986;SDS011;28361;50.740;7.084;2022-08-19T03:46:22;13.23;;;10.65;;
41986;SDS011;28361;50.740;7.084;2022-08-19T03:48:49;15.55;;;12.18;;
41986;SDS011;28361;50.740;7.084;2022-08-19T03:51:23;15.85;;;11.95;;
41986;SDS011;28361;50.740;7.084;2022-08-19T03:53:50;14.82;;;11.90;;
41986;SDS011;28361;50.740;7.084;2022-08-19T03:56:16;16.52;;;12.45;;
41986;SDS011;28361;50.740;7.084;2022-08-19T03:58:43;16.27;;;11.48;;
41986;SDS011;28361;50.740;7.084;2022-08-19T04:01:10;16.85;;;12.73;;
41986;SDS011;28361;50.740;7.084;2022-08-19T04:03:37;13.90;;;11.82;;
41986;SDS011;28361;50.740;7.084;2022-08-19T04:06:12;15.65;;;12.57;;
41986;SDS011;28361;50.740;7.084;2022-08-19T04:08:39;20.58;;;13.20;;
41986;SDS011;28361;50.740;7.084;2022-08-19T04:11:06;17.63;;;13.00;;
41986;SDS011;28361;50.740;7.084;2022-08-19T04:13:33;18.45;;;13.25;;
41986;SDS011;28361;50.740;7.084;2022-08-19T04:15:59;22.55;;;14.88;;
41986;SDS011;28361;50.740;7.084;2022-08-19T04:18:25;18.75;;;13.95;;
41986;SDS011;28361;50.740;7.084;2022-08-19T04:20:54;20.55;;;14.93;;
41986;SDS011;28361;50.740;7.084;2022-08-19T04:23:21;21.38;;;15.27;;
41986;SDS011;28361;50.740;7.084;2022-08-19T04:25:48;19.00;;;15.52;;
41986;SDS011;28361;50.740;7.084;2022-08-19T04:28:14;21.02;;;15.30;;
41986;SDS011;28361;50.740;7.084;2022-08-19T04:30:48;19.40;;;14.73;;
41986;SDS011;28361;50.740;7.084;2022-08-19T04:33:16;20.70;;;15.80;;
41986;SDS011;28361;50.740;7.084;2022-08-19T04:35:44;22.30;;;15.90;;
41986;SDS011;28361;50.740;7.084;2022-08-19T04:38:12;23.38;;;16.33;;
41986;SDS011;28361;50.740;7.084;2022-08-19T04:40:45;21.02;;;16.73;;
41986;SDS011;28361;50.740;7.084;2022-08-19T04:43:30;21.92;;;16.38;;
41986;SDS011;28361;50.740;7.084;2022-08-19T04:45:56;23.70;;;17.63;;
41986;SDS011;28361;50.740;7.084;2022-08-19T04:48:23;21.25;;;16.50;;
41986;SDS011;28361;50.740;7.084;2022-08-19T04:50:53;24.13;;;17.70;;
41986;SDS011;28361;50.740;7.084;2022-08-19T04:53:23;22.37;;;17.87;;
41986;SDS011;28361;50.740;7.084;2022-08-19T04:55:50;23.45;;;17.98;;
41986;SDS011;28361;50.740;7.084;2022-08-19T04:58:16;22.85;;;17.77;;
41986;SDS011;28361;50.740;7.084;2022-08-19T05:00:43;24.00;;;17.85;;
41986;SDS011;28361;50.740;7.084;2022-08-19T05:03:09;26.70;;;18.92;;
41986;SDS011;28361;50.740;7.084;2022-08-19T05:05:39;24.52;;;17.05;;
41986;SDS011;28361;50.740;7.084;2022-08-19T05:08:06;26.95;;;18.73;;
41986;SDS011;28361;50.740;7.084;2022-08-19T05:10:35;23.38;;;17.15;;
41986;SDS011;28361;50.740;7.084;2022-08-19T05:13:01;23.95;;;17.55;;
41986;SDS011;28361;50.740;7.084;2022-08-19T05:15:27;27.75;;;19.10;;
41986;SDS011;28361;50.740;7.084;2022-08-19T05:17:54;25.60;;;18.27;;
41986;SDS011;28361;50.740;7.084;2022-08-19T05:20:39;26.40;;;17.80;;
41986;SDS011;28361;50.740;7.084;2022-08-19T05:23:23;26.27;;;18.15;;
41986;SDS011;28361;50.740;7.084;2022-08-19T05:25:50;23.67;;;18.08;;
41986;SDS011;28361;50.740;7.084;2022-08-19T05:28:17;25.83;;;18.80;;
41986;SDS011;28361;50.740;7.084;2022-08-19T05:30:44;24.58;;;19.17;;
41986;SDS011;28361;50.740;7.084;2022-08-19T05:33:10;26.88;;;18.30;;
41986;SDS011;28361;50.740;7.084;2022-08-19T05:35:37;27.95;;;19.80;;
41986;SDS011;28361;50.740;7.084;2022-08-19T05:38:04;28.10;;;19.98;;
41986;SDS011;28361;50.740;7.084;2022-08-19T05:40:34;27.35;;;20.67;;
41986;SDS011;28361;50.740;7.084;2022-08-19T05:43:01;25.65;;;19.85;;
41986;SDS011;28361;50.740;7.084;2022-08-19T05:45:27;26.80;;;20.23;;
41986;SDS011;28361;50.740;7.084;2022-08-19T05:47:54;27.77;;;20.70;;
41986;SDS011;28361;50.740;7.084;2022-08-19T05:50:20;28.50;;;21.50;;
41986;SDS011;28361;50.740;7.084;2022-08-19T05:52:46;27.70;;;20.05;;
41986;SDS011;28361;50.740;7.084;2022-08-19T05:55:12;28.48;;;22.10;;
41986;SDS011;28361;50.740;7.084;2022-08-19T05:57:38;27.33;;;21.15;;
41986;SDS011;28361;50.740;7.084;2022-08-19T06:00:05;26.95;;;20.20;;
41986;SDS011;28361;50.740;7.084;2022-08-19T06:05:02;28.52;;;21.13;;
41986;SDS011;28361;50.740;7.084;2022-08-19T06:07:28;29.48;;;20.95;;
41986;SDS011;28361;50.740;7.084;2022-08-19T06:09:55;27.98;;;20.55;;
41986;SDS011;28361;50.740;7.084;2022-08-19T06:12:21;28.70;;;21.45;;
41986;SDS011;28361;50.740;7.084;2022-08-19T06:14:53;30.52;;;21.83;;
41986;SDS011;28361;50.740;7.084;2022-08-19T06:17:20;31.25;;;22.58;;
41986;SDS011;28361;50.740;7.084;2022-08-19T06:19:49;31.33;;;22.63;;
41986;SDS011;28361;50.740;7.084;2022-08-19T06:22:16;30.08;;;22.50;;
41986;SDS011;28361;50.740;7.084;2022-08-19T06:24:42;32.03;;;22.33;;
41986;SDS011;28361;50.740;7.084;2022-08-19T06:27:08;30.65;;;21.58;;
41986;SDS011;28361;50.740;7.084;2022-08-19T06:29:34;33.83;;;23.25;;
41986;SDS011;28361;50.740;7.084;2022-08-19T06:32:01;32.97;;;22.95;;
41986;SDS011;28361;50.740;7.084;2022-08-19T06:34:28;31.33;;;23.13;;
41986;SDS011;28361;50.740;7.084;2022-08-19T06:36:55;32.65;;;23.05;;
41986;SDS011;28361;50.740;7.084;2022-08-19T06:39:23;30.92;;;22.75;;
41986;SDS011;28361;50.740;7.084;2022-08-19T06:41:50;37.20;;;24.85;;
41986;SDS011;28361;50.740;7.084;2022-08-19T06:44:21;32.33;;;22.30;;
41986;SDS011;28361;50.740;7.084;2022-08-19T06:46:48;31.52;;;21.92;;
41986;SDS011;28361;50.740;7.084;2022-08-19T06:49:14;37.08;;;22.92;;
41986;SDS011;28361;50.740;7.084;2022-08-19T06:51:41;32.88;;;22.70;;
41986;SDS011;28361;50.740;7.084;2022-08-19T06:54:08;30.30;;;21.45;;
41986;SDS011;28361;50.740;7.084;2022-08-19T06:56:35;29.88;;;21.13;;
41986;SDS011;28361;50.740;7.084;2022-08-19T06:59:05;29.33;;;20.65;;
41986;SDS011;28361;50.740;7.084;2022-08-19T07:01:39;29.00;;;20.85;;
41986;SDS011;28361;50.740;7.084;2022-08-19T07:04:06;29.45;;;21.58;;
41986;SDS011;28361;50.740;7.084;2022-08-19T07:06:33;34.90;;;22.10;;
41986;SDS011;28361;50.740;7.084;2022-08-19T07:08:59;35.33;;;21.33;;
41986;SDS011;28361;50.740;7.084;2022-08-19T07:11:25;30.95;;;20.67;;
41986;SDS011;28361;50.740;7.084;2022-08-19T07:13:51;29.90;;;19.83;;
41986;SDS011;28361;50.740;7.084;2022-08-19T07:16:18;28.60;;;20.80;;
41986;SDS011;28361;50.740;7.084;2022-08-19T07:18:47;33.70;;;21.15;;
41986;SDS011;28361;50.740;7.084;2022-08-19T07:21:18;33.22;;;21.73;;
41986;SDS011;28361;50.740;7.084;2022-08-19T07:23:45;27.20;;;19.38;;
41986;SDS011;28361;50.740;7.084;2022-08-19T07:26:15;26.25;;;19.75;;
41986;SDS011;28361;50.740;7.084;2022-08-19T07:28:42;32.65;;;20.25;;
41986;SDS011;28361;50.740;7.084;2022-08-19T07:31:13;25.60;;;17.70;;
41986;SDS011;28361;50.740;7.084;2022-08-19T07:33:40;27.30;;;19.40;;
41986;SDS011;28361;50.740;7.084;2022-08-19T07:36:08;22.85;;;16.42;;
41986;SDS011;28361;50.740;7.084;2022-08-19T07:38:36;22.30;;;15.35;;
41986;SDS011;28361;50.740;7.084;2022-08-19T07:41:04;29.65;;;17.42;;
41986;SDS011;28361;50.740;7.084;2022-08-19T07:43:30;26.48;;;17.08;;
41986;SDS011;28361;50.740;7.084;2022-08-19T07:45:56;23.83;;;16.73;;
41986;SDS011;28361;50.740;7.084;2022-08-19T07:48:23;23.10;;;16.20;;
41986;SDS011;28361;50.740;7.084;2022-08-19T07:53:20;28.88;;;17.58;;
41986;SDS011;28361;50.740;7.084;2022-08-19T07:55:46;21.98;;;16.23;;
41986;SDS011;28361;50.740;7.084;2022-08-19T07:58:13;21.75;;;15.75;;
41986;SDS011;28361;50.740;7.084;2022-08-19T08:00:40;21.52;;;14.52;;
41986;SDS011;28361;50.740;7.084;2022-08-19T08:03:06;20.95;;;14.18;;
41986;SDS011;28361;50.740;7.084;2022-08-19T08:05:33;23.23;;;15.85;;
41986;SDS011;28361;50.740;7.084;2022-08-19T08:08:18;22.58;;;14.70;;
41986;SDS011;28361;50.740;7.084;2022-08-19T08:11:07;19.35;;;13.35;;
41986;SDS011;28361;50.740;7.084;2022-08-19T08:13:34;18.98;;;12.60;;
41986;SDS011;28361;50.740;7.084;2022-08-19T08:16:03;18.20;;;12.77;;
41986;SDS011;28361;50.740;7.084;2022-08-19T08:18:29;19.40;;;11.23;;
41986;SDS011;28361;50.740;7.084;2022-08-19T08:20:56;17.70;;;10.73;;
41986;SDS011;28361;50.740;7.084;2022-08-19T08:23:23;16.30;;;10.55;;
41986;SDS011;28361;50.740;7.084;2022-08-19T08:25:52;13.70;;;9.00;;
41986;SDS011;28361;50.740;7.084;2022-08-19T08:28:19;16.58;;;10.70;;
41986;SDS011;28361;50.740;7.084;2022-08-19T08:30:46;14.02;;;10.00;;
41986;SDS011;28361;50.740;7.084;2022-08-19T08:33:13;14.63;;;9.43;;
41986;SDS011;28361;50.740;7.084;2022-08-19T08:35:40;12.75;;;8.60;;
41986;SDS011;28361;50.740;7.084;2022-08-19T08:38:07;12.93;;;9.18;;
41986;SDS011;28361;50.740;7.084;2022-08-19T08:46:00;12.15;;;8.85;;
41986;SDS011;28361;50.740;7.084;2022-08-19T08:48:32;13.75;;;9.65;;
41986;SDS011;28361;50.740;7.084;2022-08-19T08:51:02;16.00;;;10.52;;
41986;SDS011;28361;50.740;7.084;2022-08-19T08:53:29;13.02;;;9.75;;
41986;SDS011;28361;50.740;7.084;2022-08-19T08:55:56;17.38;;;10.95;;
41986;SDS011;28361;50.740;7.084;2022-08-19T09:01:19;14.65;;;9.93;;
41986;SDS011;28361;50.740;7.084;2022-08-19T09:03:45;14.75;;;11.23;;
41986;SDS011;28361;50.740;7.084;2022-08-19T09:06:19;16.88;;;11.70;;
41986;SDS011;28361;50.740;7.084;2022-08-19T09:11:34;15.38;;;10.80;;
41986;SDS011;28361;50.740;7.084;2022-08-19T09:14:15;18.95;;;13.65;;
41986;SDS011;28361;50.740;7.084;2022-08-19T09:16:43;18.55;;;13.05;;
41986;SDS011;28361;50.740;7.084;2022-08-19T09:19:09;19.30;;;12.73;;
41986;SDS011;28361;50.740;7.084;2022-08-19T09:21:36;21.30;;;13.48;;
41986;SDS011;28361;50.740;7.084;2022-08-19T09:24:04;18.63;;;13.70;;
41986;SDS011;28361;50.740;7.084;2022-08-19T09:26:31;21.50;;;14.82;;
41986;SDS011;28361;50.740;7.084;2022-08-19T09:28:57;18.98;;;13.68;;
41986;SDS011;28361;50.740;7.084;2022-08-19T09:31:25;20.23;;;13.43;;
41986;SDS011;28361;50.740;7.084;2022-08-19T09:33:52;17.77;;;13.23;;
41986;SDS011;28361;50.740;7.084;2022-08-19T09:36:24;17.17;;;12.65;;
41986;SDS011;28361;50.740;7.084;2022-08-19T09:38:51;18.67;;;11.98;;
41986;SDS011;28361;50.740;7.084;2022-08-19T09:41:19;16.65;;;12.48;;
41986;SDS011;28361;50.740;7.084;2022-08-19T09:43:47;17.27;;;12.77;;
41986;SDS011;28361;50.740;7.084;2022-08-19T09:46:14;21.33;;;12.95;;
41986;SDS011;28361;50.740;7.084;2022-08-19T09:48:43;17.92;;;11.30;;
41986;SDS011;28361;50.740;7.084;2022-08-19T09:51:13;14.80;;;11.30;;
41986;SDS011;28361;50.740;7.084;2022-08-19T09:53:43;13.07;;;9.02;;
41986;SDS011;28361;50.740;7.084;2022-08-19T09:56:10;11.80;;;9.60;;
41986;SDS011;28361;50.740;7.084;2022-08-19T09:58:37;20.20;;;14.77;;
41986;SDS011;28361;50.740;7.084;2022-08-19T10:01:04;18.00;;;12.77;;
41986;SDS011;28361;50.740;7.084;2022-08-19T10:03:31;21.33;;;14.88;;
41986;SDS011;28361;50.740;7.084;2022-08-19T10:05:58;21.70;;;13.77;;
41986;SDS011;28361;50.740;7.084;2022-08-19T10:08:26;21.08;;;15.38;;
41986;SDS011;28361;50.740;7.084;2022-08-19T10:10:52;18.00;;;13.85;;
41986;SDS011;28361;50.740;7.084;2022-08-19T10:13:20;22.38;;;14.07;;
41986;SDS011;28361;50.740;7.084;2022-08-19T10:15:48;18.98;;;13.18;;
41986;SDS011;28361;50.740;7.084;2022-08-19T10:18:18;19.48;;;13.48;;
41986;SDS011;28361;50.740;7.084;2022-08-19T10:20:45;15.23;;;11.98;;
41986;SDS011;28361;50.740;7.084;2022-08-19T10:23:13;20.30;;;14.18;;
41986;SDS011;28361;50.740;7.084;2022-08-19T10:25:40;19.75;;;14.35;;
41986;SDS011;28361;50.740;7.084;2022-08-19T10:28:07;20.15;;;15.20;;
41986;SDS011;28361;50.740;7.084;2022-08-19T10:30:40;18.67;;;13.80;;
41986;SDS011;28361;50.740;7.084;2022-08-19T10:33:07;19.23;;;13.25;;
41986;SDS011;28361;50.740;7.084;2022-08-19T10:35:33;15.60;;;12.57;;
41986;SDS011;28361;50.740;7.084;2022-08-19T10:37:59;17.05;;;13.00;;
41986;SDS011;28361;50.740;7.084;2022-08-19T10:40:27;17.05;;;12.15;;
41986;SDS011;28361;50.740;7.084;2022-08-19T10:42:54;13.10;;;10.73;;
41986;SDS011;28361;50.740;7.084;2022-08-19T10:45:20;14.27;;;10.88;;
41986;SDS011;28361;50.740;7.084;2022-08-19T10:47:48;13.48;;;9.57;;
41986;SDS011;28361;50.740;7.084;2022-08-19T10:50:14;13.32;;;9.85;;
41986;SDS011;28361;50.740;7.084;2022-08-19T10:53:02;12.70;;;9.18;;
41986;SDS011;28361;50.740;7.084;2022-08-19T10:55:28;11.68;;;9.20;;
41986;SDS011;28361;50.740;7.084;2022-08-19T10:58:15;10.52;;;8.18;;
41986;SDS011;28361;50.740;7.084;2022-08-19T11:00:42;10.35;;;7.65;;
41986;SDS011;28361;50.740;7.084;2022-08-19T11:03:08;11.05;;;8.55;;
41986;SDS011;28361;50.740;7.084;2022-08-19T11:05:35;13.00;;;8.20;;
41986;SDS011;28361;50.740;7.084;2022-08-19T11:08:02;10.77;;;7.43;;
41986;SDS011;28361;50.740;7.084;2022-08-19T11:10:28;11.13;;;8.13;;
41986;SDS011;28361;50.740;7.084;2022-08-19T11:12:55;12.57;;;8.38;;
41986;SDS011;28361;50.740;7.084;2022-08-19T11:15:21;9.98;;;7.80;;
41986;SDS011;28361;50.740;7.084;2022-08-19T11:17:47;11.68;;;7.55;;
41986;SDS011;28361;50.740;7.084;2022-08-19T11:20:14;7.70;;;6.20;;
41986;SDS011;28361;50.740;7.084;2022-08-19T11:22:40;6.95;;;5.68;;
41986;SDS011;28361;50.740;7.084;2022-08-19T11:25:08;7.32;;;6.05;;
41986;SDS011;28361;50.740;7.084;2022-08-19T11:27:37;7.93;;;6.10;;
41986;SDS011;28361;50.740;7.084;2022-08-19T11:30:04;8.98;;;5.90;;
41986;SDS011;28361;50.740;7.084;2022-08-19T11:32:30;6.10;;;5.03;;
41986;SDS011;28361;50.740;7.084;2022-08-19T11:34:57;6.43;;;5.35;;
41986;SDS011;28361;50.740;7.084;2022-08-19T11:37:23;6.40;;;5.20;;
41986;SDS011;28361;50.740;7.084;2022-08-19T11:39:49;8.82;;;5.25;;
41986;SDS011;28361;50.740;7.084;2022-08-19T11:42:15;6.70;;;5.13;;
41986;SDS011;28361;50.740;7.084;2022-08-19T11:45:02;8.68;;;6.05;;
41986;SDS011;28361;50.740;7.084;2022-08-19T11:47:29;8.10;;;6.40;;
41986;SDS011;28361;50.740;7.084;2022-08-19T11:49:55;7.30;;;5.43;;
41986;SDS011;28361;50.740;7.084;2022-08-19T11:52:22;7.50;;;5.15;;
41986;SDS011;28361;50.740;7.084;2022-08-19T11:54:48;8.30;;;5.63;;
41986;SDS011;28361;50.740;7.084;2022-08-19T11:57:15;8.07;;;5.75;;
41986;SDS011;28361;50.740;7.084;2022-08-19T11:59:42;7.35;;;5.65;;
41986;SDS011;28361;50.740;7.084;2022-08-19T12:02:08;6.25;;;4.80;;
41986;SDS011;28361;50.740;7.084;2022-08-19T12:04:35;6.20;;;4.47;;
41986;SDS011;28361;50.740;7.084;2022-08-19T12:07:01;8.02;;;4.90;;
41986;SDS011;28361;50.740;7.084;2022-08-19T12:09:28;9.85;;;5.28;;
41986;SDS011;28361;50.740;7.084;2022-08-19T12:11:54;5.82;;;5.22;;
41986;SDS011;28361;50.740;7.084;2022-08-19T12:14:21;9.35;;;7.50;;
41986;SDS011;28361;50.740;7.084;2022-08-19T12:16:48;9.10;;;7.68;;
41986;SDS011;28361;50.740;7.084;2022-08-19T12:19:14;8.30;;;6.68;;
41986;SDS011;28361;50.740;7.084;2022-08-19T12:21:40;7.90;;;6.05;;
41986;SDS011;28361;50.740;7.084;2022-08-19T12:24:07;7.38;;;5.93;;
41986;SDS011;28361;50.740;7.084;2022-08-19T12:26:33;8.32;;;5.57;;
41986;SDS011;28361;50.740;7.084;2022-08-19T12:28:59;8.65;;;6.13;;
41986;SDS011;28361;50.740;7.084;2022-08-19T12:31:26;10.35;;;7.82;;
41986;SDS011;28361;50.740;7.084;2022-08-19T12:33:53;8.65;;;6.50;;
41986;SDS011;28361;50.740;7.084;2022-08-19T12:36:19;11.38;;;7.00;;
41986;SDS011;28361;50.740;7.084;2022-08-19T12:38:47;9.90;;;6.75;;
41986;SDS011;28361;50.740;7.084;2022-08-19T12:41:13;8.45;;;6.10;;
41986;SDS011;28361;50.740;7.084;2022-08-19T12:43:40;7.30;;;6.55;;
41986;SDS011;28361;50.740;7.084;2022-08-19T12:46:06;11.27;;;8.18;;
41986;SDS011;28361;50.740;7.084;2022-08-19T12:48:33;18.33;;;9.65;;
41986;SDS011;28361;50.740;7.084;2022-08-19T12:50:59;10.52;;;8.40;;
41986;SDS011;28361;50.740;7.084;2022-08-19T12:53:26;13.43;;;10.48;;
41986;SDS011;28361;50.740;7.084;2022-08-19T12:55:56;9.70;;;7.93;;
41986;SDS011;28361;50.740;7.084;2022-08-19T12:58:22;10.18;;;8.65;;
41986;SDS011;28361;50.740;7.084;2022-08-19T13:00:48;10.93;;;8.40;;
41986;SDS011;28361;50.740;7.084;2022-08-19T13:03:14;13.82;;;10.07;;
41986;SDS011;28361;50.740;7.084;2022-08-19T13:05:41;11.77;;;7.90;;
41986;SDS011;28361;50.740;7.084;2022-08-19T13:08:07;12.95;;;8.80;;
41986;SDS011;28361;50.740;7.084;2022-08-19T13:10:34;9.15;;;7.63;;
41986;SDS011;28361;50.740;7.084;2022-08-19T13:13:02;8.20;;;6.85;;
41986;SDS011;28361;50.740;7.084;2022-08-19T13:15:29;6.75;;;5.47;;
41986;SDS011;28361;50.740;7.084;2022-08-19T13:17:59;8.32;;;6.35;;
41986;SDS011;28361;50.740;7.084;2022-08-19T13:20:25;6.93;;;5.03;;
41986;SDS011;28361;50.740;7.084;2022-08-19T13:22:51;7.65;;;5.50;;
41986;SDS011;28361;50.740;7.084;2022-08-19T13:25:17;7.95;;;5.53;;
41986;SDS011;28361;50.740;7.084;2022-08-19T13:27:45;6.18;;;5.10;;
41986;SDS011;28361;50.740;7.084;2022-08-19T13:30:12;6.88;;;5.38;;
41986;SDS011;28361;50.740;7.084;2022-08-19T13:32:57;7.55;;;5.32;;
41986;SDS011;28361;50.740;7.084;2022-08-19T13:35:36;8.00;;;5.90;;
41986;SDS011;28361;50.740;7.084;2022-08-19T13:38:02;8.95;;;5.82;;
41986;SDS011;28361;50.740;7.084;2022-08-19T13:40:30;10.10;;;7.18;;
41986;SDS011;28361;50.740;7.084;2022-08-19T13:42:58;9.25;;;6.72;;
41986;SDS011;28361;50.740;7.084;2022-08-19T13:45:24;7.97;;;6.28;;
41986;SDS011;28361;50.740;7.084;2022-08-19T13:47:51;10.38;;;7.45;;
41986;SDS011;28361;50.740;7.084;2022-08-19T13:50:21;7.60;;;6.18;;
41986;SDS011;28361;50.740;7.084;2022-08-19T13:52:47;8.23;;;6.57;;
41986;SDS011;28361;50.740;7.084;2022-08-19T13:55:15;10.82;;;7.72;;
41986;SDS011;28361;50.740;7.084;2022-08-19T13:57:41;8.98;;;5.97;;
41986;SDS011;28361;50.740;7.084;2022-08-19T14:00:12;7.03;;;5.72;;
41986;SDS011;28361;50.740;7.084;2022-08-19T14:02:39;7.72;;;5.55;;
41986;SDS011;28361;50.740;7.084;2022-08-19T14:05:06;8.15;;;5.47;;
41986;SDS011;28361;50.740;7.084;2022-08-19T14:07:33;6.65;;;4.53;;
41986;SDS011;28361;50.740;7.084;2022-08-19T14:09:59;7.80;;;5.05;;
41986;SDS011;28361;50.740;7.084;2022-08-19T14:12:26;8.02;;;5.20;;
41986;SDS011;28361;50.740;7.084;2022-08-19T14:14:52;6.75;;;4.90;;
41986;SDS011;28361;50.740;7.084;2022-08-19T14:17:18;5.85;;;5.20;;
41986;SDS011;28361;50.740;7.084;2022-08-19T14:19:44;8.18;;;5.53;;
41986;SDS011;28361;50.740;7.084;2022-08-19T14:22:10;11.95;;;6.15;;
41986;SDS011;28361;50.740;7.084;2022-08-19T14:24:37;10.55;;;6.60;;
41986;SDS011;28361;50.740;7.084;2022-08-19T14:27:06;9.63;;;6.45;;
41986;SDS011;28361;50.740;7.084;2022-08-19T14:29:33;7.80;;;6.13;;
41986;SDS011;28361;50.740;7.084;2022-08-19T14:31:59;6.97;;;5.75;;
41986;SDS011;28361;50.740;7.084;2022-08-19T14:34:26;9.82;;;6.07;;
41986;SDS011;28361;50.740;7.084;2022-08-19T14:36:52;18.73;;;6.47;;
41986;SDS011;28361;50.740;7.084;2022-08-19T14:39:18;8.15;;;5.60;;
41986;SDS011;28361;50.740;7.084;2022-08-19T14:41:44;8.25;;;5.50;;
41986;SDS011;28361;50.740;7.084;2022-08-19T14:44:11;14.13;;;5.45;;
41986;SDS011;28361;50.740;7.084;2022-08-19T14:46:40;6.97;;;5.22;;
41986;SDS011;28361;50.740;7.084;2022-08-19T14:49:06;6.07;;;5.07;;
41986;SDS011;28361;50.740;7.084;2022-08-19T14:51:32;9.60;;;4.90;;